Time;durP1;ratioP1;P1;durP2;ratioP2;P2;SDS_P1;SDS_P2;PMS_P1;PMS_P2;Temp;Humidity;BMP_temperature;BMP_pressure;BME280_temperature;BME280_humidity;BME280_pressure;Samples;Min_cycle;Max_cycle;Signal;HPM_P1;HPM_P2
2022/05/15 00:00:52;;;;;;;32.65;10.02;;;10.60;99.90;;;;;;4975065;28;20064;-74
2022/05/15 00:03:20;;;;;;;41.72;10.55;;;10.50;99.90;;;;;;4974846;28;20121;-73
2022/05/15 00:05:54;;;;;;;37.30;13.25;;;10.90;99.90;;;;;;4974847;28;20499;-75
2022/05/15 00:08:20;;;;;;;35.53;13.63;;;10.60;99.90;;;;;;4956954;28;20051;-74
2022/05/15 00:10:46;;;;;;;43.58;16.65;;;10.60;99.90;;;;;;4974671;28;20117;-74
2022/05/15 00:13:12;;;;;;;;;;;9.90;99.90;;;;;;4974859;28;20043;-73
2022/05/15 00:15:39;;;;;;;36.17;13.27;;;10.70;99.90;;;;;;4974555;28;20383;-73
2022/05/15 00:18:05;;;;;;;31.50;10.57;;;10.50;99.90;;;;;;4974627;28;20055;-73
2022/05/15 00:20:31;;;;;;;30.20;11.40;;;10.30;99.90;;;;;;4974473;28;20055;-73
2022/05/15 00:22:58;;;;;;;35.92;11.00;;;10.40;99.90;;;;;;4974576;28;20042;-73
2022/05/15 00:25:24;;;;;;;32.17;10.18;;;10.60;99.90;;;;;;4974290;28;20479;-72
2022/05/15 00:27:50;;;;;;;32.53;9.48;;;11.60;99.90;;;;;;4974196;28;20054;-73
2022/05/15 00:30:17;;;;;;;33.47;9.70;;;10.70;99.90;;;;;;4957146;28;20105;-74
2022/05/15 00:32:42;;;;;;;36.90;10.60;;;10.70;99.90;;;;;;4941248;28;20054;-73
2022/05/15 00:35:09;;;;;;;39.15;10.57;;;10.50;99.90;;;;;;4974078;28;20500;-75
2022/05/15 00:37:34;;;;;;;;;;;10.40;99.90;;;;;;4974567;28;20549;-74
2022/05/15 00:40:00;;;;;;;31.98;9.15;;;11.00;99.90;;;;;;4957065;28;19922;-73
2022/05/15 00:42:26;;;;;;;38.75;9.45;;;11.90;99.90;;;;;;4974020;28;20055;-75
2022/05/15 00:44:52;;;;;;;27.65;10.65;;;11.00;99.90;;;;;;4957189;28;20058;-75
2022/05/15 00:47:19;;;;;;;37.00;11.05;;;10.80;99.90;;;;;;4974082;28;20422;-74
2022/05/15 00:49:46;;;;;;;33.50;11.48;;;10.20;99.90;;;;;;4972634;28;20082;-73
2022/05/15 00:52:15;;;;;;;39.22;13.18;;;10.50;99.90;;;;;;4973967;28;20062;-74
2022/05/15 00:54:47;;;;;;;26.27;10.85;;;10.70;99.90;;;;;;4956531;28;20407;-74
2022/05/15 00:57:21;;;;;;;27.95;10.90;;;10.50;99.90;;;;;;4956806;28;20081;-73
2022/05/15 00:59:58;;;;;;;39.13;12.15;;;10.40;99.90;;;;;;4973944;28;20252;-75
2022/05/15 01:02:27;;;;;;;31.30;10.95;;;10.10;99.90;;;;;;4956805;28;20402;-73
2022/05/15 01:04:53;;;;;;;42.28;12.18;;;9.90;99.90;;;;;;4973752;28;20039;-72
2022/05/15 01:07:19;;;;;;;42.95;12.13;;;10.00;99.90;;;;;;4956513;28;20047;-72
2022/05/15 01:09:45;;;;;;;26.10;10.50;;;9.90;99.90;;;;;;4956529;28;20077;-73
2022/05/15 01:12:12;;;;;;;37.85;12.00;;;11.20;99.90;;;;;;4973739;28;20506;-73
2022/05/15 01:14:43;;;;;;;26.15;10.40;;;11.40;99.90;;;;;;4956511;28;20046;-73
2022/05/15 01:17:09;;;;;;;40.83;12.40;;;10.10;99.90;;;;;;4956447;28;20051;-73
2022/05/15 01:19:41;;;;;;;30.67;11.48;;;9.80;99.90;;;;;;4973528;28;20055;-73
2022/05/15 01:22:11;;;;;;;38.35;11.35;;;10.00;99.90;;;;;;4973524;28;20077;-75
2022/05/15 01:24:37;;;;;;;29.25;10.07;;;9.90;99.90;;;;;;4973904;28;20065;-73
2022/05/15 01:27:04;;;;;;;;;;;11.20;99.90;;;;;;4956883;28;20047;-75
2022/05/15 01:29:34;;;;;;;41.22;12.10;;;10.00;99.90;;;;;;4956547;28;19992;-73
2022/05/15 01:32:01;;;;;;;28.27;9.27;;;11.40;99.90;;;;;;4956477;28;20045;-73
2022/05/15 01:34:27;;;;;;;40.28;11.43;;;9.90;99.90;;;;;;4955986;28;20053;-74
2022/05/15 01:36:54;;;;;;;29.90;9.95;;;9.90;99.90;;;;;;4956567;28;20043;-74
2022/05/15 01:39:20;;;;;;;30.08;11.27;;;10.00;99.90;;;;;;4973562;28;20403;-74
2022/05/15 01:41:46;;;;;;;35.42;11.43;;;10.00;99.90;;;;;;4973519;28;20045;-74
2022/05/15 01:44:11;;;;;;;37.00;10.63;;;10.00;99.90;;;;;;4973443;28;20047;-74
2022/05/15 01:46:37;;;;;;;29.58;9.70;;;10.70;99.90;;;;;;4973403;28;20134;-74
2022/05/15 01:49:06;;;;;;;33.22;10.07;;;9.60;99.90;;;;;;4971928;28;20425;-74
2022/05/15 01:51:33;;;;;;;31.10;11.00;;;9.90;99.90;;;;;;4973380;28;20221;-74
2022/05/15 01:54:00;;;;;;;35.85;11.43;;;11.00;99.90;;;;;;4973324;28;20116;-73
2022/05/15 01:56:26;;;;;;;39.90;11.57;;;10.10;99.90;;;;;;4973275;28;20426;-74
2022/05/15 01:58:52;;;;;;;40.70;11.55;;;9.60;99.90;;;;;;4956255;28;20042;-73
2022/05/15 02:01:17;;;;;;;38.58;11.00;;;9.50;99.90;;;;;;4971985;28;20105;-74
2022/05/15 02:03:43;;;;;;;31.55;11.15;;;11.10;99.90;;;;;;4973117;28;20051;-74
2022/05/15 02:06:09;;;;;;;31.80;12.18;;;9.60;99.90;;;;;;4973043;28;20136;-74
2022/05/15 02:08:35;;;;;;;34.00;10.25;;;9.60;99.90;;;;;;4973180;28;20053;-74
2022/05/15 02:11:01;;;;;;;;;;;9.40;99.90;;;;;;4956665;28;20134;-74
2022/05/15 02:13:27;;;;;;;41.90;11.18;;;9.50;99.90;;;;;;4955663;28;20503;-74
2022/05/15 02:15:53;;;;;;;41.05;12.05;;;9.50;99.90;;;;;;4973181;28;20051;-74
2022/05/15 02:18:19;;;;;;;33.83;11.38;;;10.90;99.90;;;;;;4972916;28;20050;-73
2022/05/15 02:20:45;;;;;;;45.38;12.35;;;10.70;99.90;;;;;;4973286;28;20053;-74
2022/05/15 02:23:11;;;;;;;36.65;11.70;;;9.80;99.90;;;;;;4956024;28;20043;-74
2022/05/15 02:25:38;;;;;;;28.67;9.00;;;9.50;99.90;;;;;;4971879;28;20104;-75
2022/05/15 02:28:04;;;;;;;36.17;11.70;;;10.30;99.90;;;;;;4939865;28;20117;-73
2022/05/15 02:30:29;;;;;;;;;;;9.30;99.90;;;;;;4973446;28;20069;-74
2022/05/15 02:32:55;;;;;;;36.67;11.15;;;10.10;99.90;;;;;;4958354;28;20362;-74
2022/05/15 02:35:23;;;;;;;36.70;11.23;;;10.20;99.90;;;;;;4976691;28;20042;-74
2022/05/15 02:37:49;;;;;;;31.83;10.23;;;11.40;99.90;;;;;;4976566;28;20074;-75
2022/05/15 02:40:23;;;;;;;27.67;10.23;;;10.10;99.90;;;;;;4975162;28;20511;-74
2022/05/15 02:42:49;;;;;;;23.23;8.77;;;9.50;99.90;;;;;;4976385;28;20062;-74
2022/05/15 02:45:15;;;;;;;20.83;8.55;;;9.40;99.90;;;;;;4976199;28;20050;-74
2022/05/15 02:47:42;;;;;;;25.52;9.55;;;10.40;99.90;;;;;;4959205;28;20483;-74
2022/05/15 02:52:55;;;;;;;18.73;8.13;;;9.30;99.90;;;;;;4975197;28;20518;-74
2022/05/15 02:55:23;;;;;;;23.48;9.18;;;9.20;99.90;;;;;;4975990;28;20073;-73
2022/05/15 02:57:49;;;;;;;33.53;10.60;;;9.60;99.90;;;;;;4975878;28;20166;-75
2022/05/15 03:00:15;;;;;;;27.05;9.00;;;9.10;99.90;;;;;;4976179;28;20086;-74
2022/05/15 03:02:41;;;;;;;33.33;10.27;;;9.20;99.90;;;;;;4975868;28;20082;-74
2022/05/15 03:05:09;;;;;;;32.90;11.30;;;8.80;99.90;;;;;;4975918;28;20053;-74
2022/05/15 03:07:36;;;;;;;31.73;10.57;;;9.20;99.90;;;;;;4975973;28;20138;-74
2022/05/15 03:10:03;;;;;;;31.90;10.80;;;10.00;99.90;;;;;;4975875;28;20046;-76
2022/05/15 03:12:31;;;;;;;24.80;10.85;;;8.90;99.90;;;;;;4958548;28;20054;-75
2022/05/15 03:14:57;;;;;;;31.80;10.65;;;8.90;99.90;;;;;;4974483;28;20126;-76
2022/05/15 03:17:23;;;;;;;36.35;10.77;;;9.10;99.90;;;;;;4975684;28;20129;-73
2022/05/15 03:19:49;;;;;;;28.60;9.40;;;9.50;99.90;;;;;;4975761;28;20055;-75
2022/05/15 03:22:15;;;;;;;30.27;10.32;;;9.30;99.90;;;;;;4975833;28;20058;-73
2022/05/15 03:24:41;;;;;;;27.42;10.05;;;8.70;99.90;;;;;;4975624;28;20101;-73
2022/05/15 03:27:06;;;;;;;35.50;11.02;;;10.30;99.90;;;;;;4975459;28;20154;-74
2022/05/15 03:29:32;;;;;;;37.22;10.88;;;8.90;99.90;;;;;;4974487;28;20094;-73
2022/05/15 03:31:58;;;;;;;30.83;10.45;;;8.80;99.90;;;;;;4975743;28;20047;-76
2022/05/15 03:34:23;;;;;;;41.10;11.85;;;9.70;99.90;;;;;;4975738;28;20126;-75
2022/05/15 03:36:51;;;;;;;37.00;11.43;;;8.90;99.90;;;;;;4975332;28;20130;-73
2022/05/15 03:39:19;;;;;;;36.42;10.93;;;9.00;99.90;;;;;;4975437;28;20134;-75
2022/05/15 03:41:49;;;;;;;36.50;13.02;;;9.70;99.90;;;;;;4957863;28;20113;-73
2022/05/15 03:44:18;;;;;;;35.50;10.27;;;9.00;99.90;;;;;;4974399;28;20127;-75
2022/05/15 03:46:44;;;;;;;38.17;11.32;;;9.30;99.90;;;;;;4975205;28;20519;-76
2022/05/15 03:49:13;;;;;;;30.25;10.55;;;9.00;99.90;;;;;;4975270;28;20097;-75
2022/05/15 03:51:40;;;;;;;31.80;9.13;;;8.80;99.90;;;;;;4957584;28;20055;-75
2022/05/15 03:54:07;;;;;;;30.38;10.40;;;9.70;99.90;;;;;;4974947;28;20066;-75
2022/05/15 03:56:51;;;;;;;35.10;11.50;;;8.80;99.90;;;;;;4957802;28;20055;-73
2022/05/15 03:59:27;;;;;;;40.85;10.88;;;9.30;99.90;;;;;;4957765;28;20039;-74
2022/05/15 04:01:53;;;;;;;38.60;10.80;;;8.80;99.90;;;;;;4974001;28;20109;-73
2022/05/15 04:04:19;;;;;;;;;;;9.70;99.90;;;;;;4958169;28;20073;-75
2022/05/15 04:06:45;;;;;;;34.90;10.82;;;9.00;99.90;;;;;;4974663;28;19929;-75
2022/05/15 04:09:11;;;;;;;;;;;8.70;99.90;;;;;;4976639;28;20468;-73
2022/05/15 04:11:37;;;;;;;26.33;10.13;;;8.80;99.90;;;;;;4977676;28;19929;-73
2022/05/15 04:14:03;;;;;;;31.05;10.63;;;9.00;99.90;;;;;;4978001;28;20058;-73
2022/05/15 04:16:29;;;;;;;38.30;10.98;;;9.90;99.90;;;;;;4959970;28;20098;-75
2022/05/15 04:18:55;;;;;;;;;;;9.40;99.90;;;;;;4978176;28;20100;-73
2022/05/15 04:21:21;;;;;;;29.35;11.00;;;10.30;99.90;;;;;;4976332;28;20012;-72
2022/05/15 04:23:47;;;;;;;43.38;11.65;;;9.00;99.90;;;;;;4959117;28;20064;-73
2022/05/15 04:26:13;;;;;;;34.63;10.38;;;9.80;99.90;;;;;;4975334;28;20054;-74
2022/05/15 04:28:41;;;;;;;31.85;10.43;;;9.00;99.90;;;;;;4974535;28;20051;-74
2022/05/15 04:31:07;;;;;;;28.58;10.23;;;10.60;99.90;;;;;;4957224;28;20125;-73
2022/05/15 04:33:34;;;;;;;27.85;10.50;;;9.00;99.90;;;;;;4974195;28;20134;-74
2022/05/15 04:36:00;;;;;;;28.98;10.18;;;8.90;99.90;;;;;;4974122;28;20525;-74
2022/05/15 04:38:26;;;;;;;40.70;11.23;;;9.10;99.90;;;;;;4974212;28;20047;-74
2022/05/15 04:40:52;;;;;;;34.42;10.55;;;10.40;99.90;;;;;;4957287;28;20043;-74
2022/05/15 04:43:18;;;;;;;30.75;10.57;;;9.00;99.90;;;;;;4976511;28;20055;-73
2022/05/15 04:45:45;;;;;;;35.67;10.70;;;9.30;99.90;;;;;;4959807;28;20055;-73
2022/05/15 04:48:12;;;;;;;39.13;11.25;;;10.30;99.90;;;;;;4959379;28;20583;-74
2022/05/15 04:50:38;;;;;;;29.73;10.70;;;9.20;99.90;;;;;;4958138;28;20424;-73
2022/05/15 04:53:07;;;;;;;30.30;10.27;;;10.50;99.90;;;;;;4957962;28;20134;-74
2022/05/15 04:55:33;;;;;;;34.58;10.32;;;10.10;99.90;;;;;;4974312;28;20057;-74
2022/05/15 04:57:59;;;;;;;31.50;10.38;;;9.40;99.90;;;;;;4941201;28;20101;-73
2022/05/15 05:00:24;;;;;;;32.28;9.50;;;10.10;99.90;;;;;;4956453;28;20054;-74
2022/05/15 05:02:50;;;;;;;36.75;9.88;;;10.40;99.90;;;;;;4973841;28;20399;-74
2022/05/15 05:05:16;;;;;;;33.28;9.98;;;9.60;99.90;;;;;;4973802;28;20101;-72
2022/05/15 05:07:42;;;;;;;28.95;8.70;;;9.60;99.90;;;;;;4973845;28;20051;-73
2022/05/15 05:10:10;;;;;;;28.25;9.60;;;10.00;99.90;;;;;;4973910;28;20096;-72
2022/05/15 05:12:36;;;;;;;26.38;8.88;;;10.10;99.90;;;;;;4973744;28;20161;-74
2022/05/15 05:15:04;;;;;;;34.75;9.02;;;10.10;99.90;;;;;;4973806;28;20525;-73
2022/05/15 05:17:30;;;;;;;29.98;8.50;;;10.10;99.90;;;;;;4973517;28;20442;-73
2022/05/15 05:19:55;;;;;;;31.17;8.52;;;10.30;99.90;;;;;;4956733;28;20125;-72
2022/05/15 05:22:21;;;;;;;28.65;9.18;;;10.30;99.90;;;;;;4973628;28;20053;-73
2022/05/15 05:24:47;;;;;;;32.63;8.98;;;10.80;99.90;;;;;;4973606;28;20042;-73
2022/05/15 05:27:12;;;;;;;27.92;7.60;;;10.70;99.90;;;;;;4973737;28;20054;-72
2022/05/15 05:29:38;;;;;;;31.50;7.97;;;10.90;99.90;;;;;;4973539;28;20051;-73
2022/05/15 05:32:04;;;;;;;24.40;8.13;;;11.60;99.90;;;;;;4972217;28;20059;-72
2022/05/15 05:34:30;;;;;;;;;;;10.50;99.90;;;;;;4973810;28;20062;-73
2022/05/15 05:36:55;;;;;;;34.15;7.68;;;10.80;99.90;;;;;;4974245;28;19922;-73
2022/05/15 05:39:21;;;;;;;30.92;7.78;;;10.90;99.90;;;;;;4973426;28;20047;-71
2022/05/15 05:41:47;;;;;;;26.77;8.23;;;11.20;99.90;;;;;;4956097;28;20053;-70
2022/05/15 05:44:13;;;;;;;30.52;7.55;;;12.60;99.90;;;;;;4973451;28;20043;-71
2022/05/15 05:46:39;;;;;;;29.40;7.82;;;11.50;99.90;;;;;;4956154;28;20502;-71
2022/05/15 05:49:04;;;;;;;25.33;6.97;;;11.60;99.90;;;;;;4973453;28;20051;-71
2022/05/15 05:51:30;;;;;;;30.88;6.95;;;11.70;99.90;;;;;;4973575;28;20066;-71
2022/05/15 05:53:56;;;;;;;30.27;7.25;;;11.80;99.90;;;;;;4973662;28;20078;-71
2022/05/15 05:56:23;;;;;;;28.65;6.45;;;12.20;99.90;;;;;;4973758;28;20062;-69
2022/05/15 05:58:49;;;;;;;27.63;6.13;;;11.90;99.90;;;;;;4973721;28;20055;-70
2022/05/15 06:01:14;;;;;;;26.73;6.25;;;12.10;99.90;;;;;;4973178;28;20069;-71
2022/05/15 06:06:25;;;;;;;20.75;5.82;;;12.00;99.90;;;;;;4973793;28;20055;-72
2022/05/15 06:08:50;;;;;;;29.27;6.43;;;11.70;99.90;;;;;;4977087;28;20054;-73
2022/05/15 06:11:16;;;;;;;25.00;6.32;;;12.30;99.90;;;;;;4976864;28;20054;-71
2022/05/15 06:13:42;;;;;;;23.33;5.78;;;12.40;99.90;;;;;;4959788;28;20449;-71
2022/05/15 06:16:08;;;;;;;24.92;5.45;;;12.70;99.90;;;;;;4943700;28;20507;-70
2022/05/15 06:18:35;;;;;;;23.95;5.88;;;12.50;99.90;;;;;;4976676;28;20051;-71
2022/05/15 06:21:00;;;;;;;;;;;12.70;99.90;;;;;;4944111;28;20490;-73
2022/05/15 06:23:26;;;;;;;28.90;7.05;;;12.80;99.90;;;;;;4976614;28;19929;-70
2022/05/15 06:25:52;;;;;;;22.00;4.93;;;12.80;99.90;;;;;;4976569;28;20051;-72
2022/05/15 06:28:19;;;;;;;27.75;5.68;;;12.80;99.90;;;;;;4959448;28;20521;-71
2022/05/15 06:30:45;;;;;;;23.48;5.45;;;13.10;99.90;;;;;;4976361;28;20058;-69
2022/05/15 06:33:10;;;;;;;24.02;5.40;;;13.10;99.90;;;;;;4976651;28;20455;-72
2022/05/15 06:35:36;;;;;;;20.88;5.40;;;13.10;99.90;;;;;;4976401;28;20046;-69
2022/05/15 06:38:03;;;;;;;23.23;5.95;;;13.30;99.90;;;;;;4971881;28;20145;-70
2022/05/15 06:40:29;;;;;;;22.65;5.72;;;13.20;99.90;;;;;;4974899;28;20051;-71
2022/05/15 06:42:57;;;;;;;17.23;4.97;;;13.50;99.90;;;;;;4975201;28;20066;-72
2022/05/15 06:45:23;;;;;;;19.40;5.53;;;13.50;99.90;;;;;;4977807;28;20050;-70
2022/05/15 06:47:49;;;;;;;18.75;5.78;;;13.70;99.90;;;;;;4958156;28;20082;-71
2022/05/15 06:50:15;;;;;;;21.25;5.82;;;13.40;99.90;;;;;;4975296;28;20092;-70
2022/05/15 06:52:41;;;;;;;18.98;5.28;;;13.70;99.90;;;;;;4969156;28;20598;-68
2022/05/15 06:55:12;;;;;;;18.65;4.75;;;14.00;99.90;;;;;;4974127;28;20102;-71
2022/05/15 06:57:38;;;;;;;21.92;4.93;;;14.30;99.90;;;;;;4974348;28;20057;-68
2022/05/15 07:00:14;;;;;;;19.88;5.53;;;13.70;99.90;;;;;;4974530;28;20406;-67
2022/05/15 07:02:43;;;;;;;19.50;5.30;;;13.90;99.90;;;;;;4974932;28;20059;-68
2022/05/15 07:05:10;;;;;;;21.88;5.57;;;14.00;99.90;;;;;;4973913;28;20101;-68
2022/05/15 07:07:37;;;;;;;22.02;5.47;;;14.00;99.90;;;;;;4972786;28;20133;-71
2022/05/15 07:10:04;;;;;;;24.95;5.35;;;14.40;99.90;;;;;;4974662;28;20126;-67
2022/05/15 07:12:30;;;;;;;17.63;5.35;;;14.80;99.90;;;;;;4973811;28;20094;-72
2022/05/15 07:14:56;;;;;;;19.80;5.25;;;14.70;99.90;;;;;;4973590;28;20473;-71
2022/05/15 07:17:21;;;;;;;21.52;5.68;;;14.80;99.90;;;;;;4974489;28;20050;-72
2022/05/15 07:19:47;;;;;;;15.68;4.13;;;14.60;99.90;;;;;;4975117;28;20475;-72
2022/05/15 07:22:13;;;;;;;17.88;5.32;;;14.50;99.90;;;;;;4956992;28;20242;-72
2022/05/15 07:24:40;;;;;;;24.27;5.65;;;14.90;99.90;;;;;;4973779;28;20046;-72
2022/05/15 07:27:09;;;;;;;19.75;5.25;;;14.90;99.90;;;;;;4974251;28;20055;-70
2022/05/15 07:29:38;;;;;;;14.20;4.07;;;15.10;99.90;;;;;;4973979;28;20097;-71
2022/05/15 07:32:05;;;;;;;20.77;5.05;;;14.90;99.90;;;;;;4974308;28;20131;-73
2022/05/15 07:34:32;;;;;;;25.23;6.05;;;15.40;99.90;;;;;;4974271;28;20054;-71
2022/05/15 07:36:58;;;;;;;23.02;6.07;;;15.10;99.90;;;;;;4973949;28;20050;-70
2022/05/15 07:39:24;;;;;;;28.65;5.78;;;15.60;99.90;;;;;;4974202;28;20503;-73
2022/05/15 07:41:49;;;;;;;;;;;15.50;99.90;;;;;;4975091;28;20058;-71
2022/05/15 07:44:16;;;;;;;24.02;5.45;;;15.30;99.90;;;;;;4973759;28;20016;-70
2022/05/15 07:46:42;;;;;;;27.15;5.55;;;15.90;99.90;;;;;;4973308;28;20494;-72
2022/05/15 07:49:08;;;;;;;22.42;5.47;;;15.90;99.90;;;;;;4974187;28;20055;-70
2022/05/15 07:51:35;;;;;;;19.58;4.57;;;16.10;99.90;;;;;;4972999;28;20137;-72
2022/05/15 07:54:01;;;;;;;22.83;4.95;;;16.30;99.90;;;;;;4973861;28;20055;-72
2022/05/15 07:56:28;;;;;;;21.08;4.93;;;16.20;99.90;;;;;;4975045;28;20105;-71
2022/05/15 07:58:53;;;;;;;19.30;5.15;;;16.10;99.90;;;;;;4975050;28;20126;-70
2022/05/15 08:01:19;;;;;;;20.60;4.97;;;16.20;99.90;;;;;;4974989;28;20130;-71
2022/05/15 08:03:46;;;;;;;14.00;4.05;;;16.10;99.90;;;;;;4974905;28;20406;-70
2022/05/15 08:08:59;;;;;;;15.45;3.53;;;16.50;99.90;;;;;;4975011;28;20062;-70
2022/05/15 08:11:28;;;;;;;11.45;3.00;;;16.40;99.90;;;;;;4974649;28;20054;-69
2022/05/15 08:13:57;;;;;;;9.95;3.50;;;16.50;99.90;;;;;;4970601;28;20553;-70
2022/05/15 08:16:24;;;;;;;12.38;3.50;;;16.60;99.90;;;;;;4970038;28;20046;-71
2022/05/15 08:24:19;;;;;;;12.88;3.50;;;17.20;99.90;;;;;;4973352;28;20046;-69
2022/05/15 08:26:45;;;;;;;;;;;17.20;99.90;;;;;;4972798;28;20454;-71
2022/05/15 08:29:11;;;;;;;14.23;2.42;;;17.30;99.90;;;;;;4954821;28;19933;-76
2022/05/15 08:31:39;;;;;;;8.32;2.40;;;17.50;99.90;;;;;;4974219;28;20059;-71
2022/05/15 08:34:06;;;;;;;12.13;3.00;;;17.70;99.90;;;;;;4974552;28;20450;-70
2022/05/15 08:36:32;;;;;;;16.25;3.25;;;17.40;99.90;;;;;;4974412;28;20406;-70
2022/05/15 08:38:58;;;;;;;11.25;3.15;;;17.50;99.90;;;;;;4974234;28;20491;-71
2022/05/15 08:41:31;;;;;;;;;;;17.50;99.90;;;;;;4957548;28;20093;-71
2022/05/15 08:44:21;;;;;;;12.05;2.58;;;17.50;99.90;;;;;;4974143;28;20421;-70
2022/05/15 08:46:52;;;;;;;8.63;2.03;;;17.50;99.90;;;;;;4974280;28;20590;-70
2022/05/15 08:49:40;;;;;;;7.13;2.45;;;18.20;99.90;;;;;;4974087;28;20053;-72
2022/05/15 08:52:22;;;;;;;8.93;2.55;;;18.10;99.90;;;;;;4973885;28;20062;-69
2022/05/15 08:54:51;;;;;;;7.32;2.58;;;18.50;99.90;;;;;;4973793;28;20039;-71
2022/05/15 08:57:20;;;;;;;11.65;2.40;;;18.20;99.90;;;;;;4973977;28;20047;-70
2022/05/15 08:59:57;;;;;;;8.15;3.00;;;18.20;99.90;;;;;;4960645;28;20117;-71
2022/05/15 09:02:23;;;;;;;10.70;2.97;;;18.40;99.90;;;;;;4981985;28;20046;-71
2022/05/15 09:04:54;;;;;;;11.60;3.67;;;18.30;99.90;;;;;;4973579;28;20109;-70
2022/05/15 09:07:19;;;;;;;12.80;3.55;;;18.40;99.90;;;;;;4973453;28;20495;-67
2022/05/15 09:09:45;;;;;;;;;;;18.50;99.90;;;;;;4974207;28;20145;-70
2022/05/15 09:12:21;;;;;;;13.50;3.08;;;18.60;99.90;;;;;;4973368;28;20289;-68
2022/05/15 09:15:04;;;;;;;13.02;3.22;;;18.60;99.90;;;;;;4973414;28;20043;-68
2022/05/15 09:17:58;;;;;;;15.05;3.60;;;18.70;99.90;;;;;;4973591;28;20080;-69
2022/05/15 09:20:24;;;;;;;13.18;3.08;;;19.20;99.90;;;;;;4973233;28;20061;-69
2022/05/15 09:22:56;;;;;;;;;;;19.10;99.90;;;;;;4974016;28;20042;-70
2022/05/15 09:25:24;;;;;;;11.25;3.00;;;19.50;99.90;;;;;;4973178;28;19976;-72
2022/05/15 09:28:00;;;;;;;12.45;3.47;;;19.20;99.90;;;;;;4973103;28;20061;-69
2022/05/15 09:30:43;;;;;;;12.93;3.30;;;19.20;99.90;;;;;;4973326;28;20050;-69
2022/05/15 09:33:22;;;;;;;12.32;3.20;;;19.50;99.90;;;;;;4972770;28;20406;-69
2022/05/15 09:35:47;;;;;;;12.57;3.10;;;19.60;99.90;;;;;;4973570;28;20043;-70
2022/05/15 09:38:29;;;;;;;12.00;3.25;;;19.40;99.90;;;;;;4972836;28;20175;-74
2022/05/15 09:43:54;;;;;;;15.30;3.55;;;18.90;99.90;;;;;;4977488;28;20133;-69
2022/05/15 09:46:25;;;;;;;13.65;3.58;;;19.50;99.90;;;;;;4960066;28;20043;-69
2022/05/15 09:49:03;;;;;;;12.85;3.78;;;19.50;99.90;;;;;;4977341;28;20556;-69
2022/05/15 09:51:54;;;;;;;13.15;3.42;;;19.50;99.90;;;;;;4977224;28;20089;-71
2022/05/15 09:54:34;;;;;;;11.98;3.35;;;19.40;99.90;;;;;;4977197;28;20039;-70
2022/05/15 09:57:22;;;;;;;17.45;4.00;;;19.60;99.90;;;;;;4977202;28;20046;-70
2022/05/15 10:00:05;;;;;;;9.60;3.45;;;19.60;99.90;;;;;;4977093;28;20043;-68
2022/05/15 10:02:46;;;;;;;15.23;3.20;;;19.60;99.90;;;;;;4977049;28;20055;-70
2022/05/15 10:05:26;;;;;;;13.75;3.70;;;20.00;99.90;;;;;;4977031;28;20153;-81
2022/05/15 10:08:11;;;;;;;12.05;3.90;;;19.70;99.90;;;;;;4977105;28;20053;-68
2022/05/15 10:10:44;;;;;;;10.98;2.90;;;19.80;99.90;;;;;;4977089;28;20047;-70
2022/05/15 10:13:33;;;;;;;15.48;3.85;;;19.70;99.90;;;;;;4976868;28;20050;-69
2022/05/15 10:16:06;;;;;;;10.20;3.75;;;19.80;99.90;;;;;;4958868;28;20525;-74
2022/05/15 10:18:43;;;;;;;12.32;3.78;;;19.60;99.90;;;;;;4971030;28;20533;-70
2022/05/15 10:21:09;;;;;;;12.60;3.38;;;19.60;99.90;;;;;;4972447;28;20085;-71
2022/05/15 10:23:55;;;;;;;8.38;3.10;;;19.70;99.90;;;;;;4954946;28;20061;-71
2022/05/15 10:26:27;;;;;;;10.57;2.95;;;20.10;99.90;;;;;;4972501;28;20038;-70
2022/05/15 10:29:07;;;;;;;8.73;3.17;;;20.00;99.90;;;;;;4975770;28;20051;-69
2022/05/15 10:31:46;;;;;;;10.77;3.63;;;19.60;99.90;;;;;;4987910;28;20074;-69
2022/05/15 10:34:14;;;;;;;12.27;3.40;;;19.70;99.90;;;;;;4995927;28;20109;-71
2022/05/15 10:37:03;;;;;;;11.15;3.15;;;19.90;99.90;;;;;;4995861;28;20050;-75
2022/05/15 10:39:49;;;;;;;14.25;3.38;;;19.70;99.90;;;;;;4995915;28;20054;-70
2022/05/15 10:43:05;;;;;;;10.25;2.83;;;20.00;99.90;;;;;;4965536;28;20046;-72
2022/05/15 10:45:54;;;;;;;7.35;2.42;;;19.70;99.90;;;;;;4932130;28;20537;-69
2022/05/15 10:48:34;;;;;;;11.65;2.80;;;20.00;99.90;;;;;;4959065;28;20051;-71
2022/05/15 10:51:38;;;;;;;11.55;3.22;;;19.70;99.90;;;;;;4976005;28;20061;-70
2022/05/15 10:57:51;;;;;;;11.90;3.10;;;20.20;99.90;;;;;;4968442;28;20046;-71
2022/05/15 11:00:55;;;;;;;8.45;2.55;;;20.30;99.90;;;;;;4976050;28;20406;-70
2022/05/15 11:04:02;;;;;;;8.38;2.35;;;20.00;99.90;;;;;;4976009;28;20047;-73
2022/05/15 11:06:42;;;;;;;10.65;2.60;;;20.30;99.90;;;;;;4956809;29;20047;-70
2022/05/15 11:09:23;;;;;;;13.23;3.13;;;20.20;99.90;;;;;;4956572;29;20058;-70
2022/05/15 11:11:55;;;;;;;11.52;3.30;;;20.80;99.90;;;;;;4956637;29;20086;-71
2022/05/15 11:14:39;;;;;;;10.55;2.88;;;20.20;99.90;;;;;;4956425;29;20513;-70
2022/05/15 11:17:13;;;;;;;9.98;3.55;;;20.20;99.90;;;;;;4939393;29;20415;-69
2022/05/15 11:19:40;;;;;;;11.13;2.78;;;20.40;99.90;;;;;;4956499;29;20051;-70
2022/05/15 11:22:19;;;;;;;11.57;3.38;;;20.60;99.90;;;;;;4982002;28;20050;-75
2022/05/15 11:24:57;;;;;;;12.75;3.17;;;20.50;99.90;;;;;;4995086;28;20097;-70
2022/05/15 11:27:41;;;;;;;10.88;2.83;;;20.50;99.90;;;;;;4995194;28;20054;-69
2022/05/15 11:30:29;;;;;;;10.60;2.67;;;20.50;99.90;;;;;;4977796;28;20060;-70
2022/05/15 11:32:55;;;;;;;11.15;2.90;;;20.80;99.90;;;;;;4994937;28;20050;-71
2022/05/15 11:35:21;;;;;;;11.43;3.70;;;20.30;99.90;;;;;;4980098;28;20118;-70
2022/05/15 11:38:10;;;;;;;8.45;3.10;;;20.50;99.90;;;;;;4983824;28;20047;-70
2022/05/15 11:40:36;;;;;;;12.27;2.80;;;20.60;99.90;;;;;;4989123;28;20145;-71
2022/05/15 11:43:26;;;;;;;8.98;2.80;;;20.50;99.90;;;;;;4994687;28;20086;-69
2022/05/15 11:46:01;;;;;;;9.48;2.83;;;20.90;99.90;;;;;;4994855;28;20054;-70
2022/05/15 11:48:32;;;;;;;9.98;2.65;;;20.90;99.90;;;;;;4994553;28;20153;-69
2022/05/15 11:51:14;;;;;;;11.80;3.00;;;21.00;99.90;;;;;;4994501;28;20058;-72
2022/05/15 11:54:04;;;;;;;12.57;3.05;;;20.90;99.90;;;;;;4977203;28;20047;-70
2022/05/15 11:56:30;;;;;;;14.80;3.28;;;20.40;99.90;;;;;;4994639;28;20054;-69
2022/05/15 11:59:15;;;;;;;10.80;3.25;;;20.30;99.90;;;;;;4994524;28;20104;-69
2022/05/15 12:02:12;;;;;;;12.65;3.03;;;20.20;99.90;;;;;;4994365;28;20050;-71
2022/05/15 12:04:38;;;;;;;9.35;2.95;;;19.80;99.90;;;;;;4976283;28;20061;-72
2022/05/15 12:07:03;;;;;;;14.18;3.65;;;19.50;99.90;;;;;;4994146;28;20054;-68
2022/05/15 12:09:41;;;;;;;10.68;3.45;;;19.50;99.90;;;;;;4994261;28;20053;-69
2022/05/15 12:12:26;;;;;;;11.70;3.70;;;19.80;99.90;;;;;;4994232;28;20046;-70
2022/05/15 12:15:11;;;;;;;13.67;3.63;;;20.20;99.90;;;;;;4993943;28;20455;-68
2022/05/15 12:17:51;;;;;;;11.70;3.60;;;19.80;99.90;;;;;;4976935;28;20352;-72
2022/05/15 12:20:16;;;;;;;12.20;3.95;;;19.90;99.90;;;;;;4994113;28;20108;-75
2022/05/15 12:23:15;;;;;;;11.90;4.15;;;19.80;99.90;;;;;;4976737;28;20422;-70
2022/05/15 12:26:10;;;;;;;13.77;4.90;;;20.20;99.90;;;;;;4989730;28;20054;-71
2022/05/15 12:29:14;;;;;;;13.07;4.13;;;20.50;99.90;;;;;;4994018;28;20042;-70
2022/05/15 12:31:44;;;;;;;16.70;4.07;;;20.30;99.90;;;;;;4960001;28;20426;-73
2022/05/15 12:34:31;;;;;;;18.38;4.30;;;20.30;99.90;;;;;;4993834;28;20062;-72
2022/05/15 12:37:02;;;;;;;13.48;4.63;;;20.20;99.90;;;;;;4993722;28;20046;-75
2022/05/15 12:39:33;;;;;;;13.20;4.00;;;20.10;99.90;;;;;;4993677;28;20038;-76
2022/05/15 12:42:01;;;;;;;12.98;3.70;;;20.40;99.90;;;;;;4993586;28;20128;-80
2022/05/15 12:44:36;;;;;;;14.20;4.32;;;20.80;99.90;;;;;;4976433;28;20054;-69
2022/05/15 12:47:09;;;;;;;13.27;4.20;;;20.50;99.90;;;;;;4993725;28;20053;-74
2022/05/15 12:49:40;;;;;;;16.23;4.18;;;20.60;99.90;;;;;;4974552;28;20113;-70
2022/05/15 12:52:16;;;;;;;14.20;3.92;;;20.90;99.90;;;;;;4973550;28;20165;-71
2022/05/15 12:54:46;;;;;;;13.82;3.60;;;20.80;99.90;;;;;;4973832;28;20499;-76
2022/05/15 12:57:16;;;;;;;11.35;3.80;;;21.00;99.90;;;;;;4973928;28;20053;-73
2022/05/15 12:59:46;;;;;;;13.85;3.60;;;20.80;99.90;;;;;;4973602;28;20047;-80
2022/05/15 13:02:20;;;;;;;9.25;2.85;;;20.80;99.90;;;;;;4972595;28;20054;-76
2022/05/15 13:04:49;;;;;;;9.02;3.28;;;20.60;99.90;;;;;;4973664;28;20051;-70
2022/05/15 13:07:16;;;;;;;11.10;3.45;;;20.70;99.90;;;;;;4960339;28;20051;-69
2022/05/15 13:09:43;;;;;;;13.95;3.20;;;20.70;99.90;;;;;;4954395;29;20480;-70
2022/05/15 13:12:15;;;;;;;10.60;3.25;;;20.90;99.90;;;;;;4954456;29;20403;-71
2022/05/15 13:14:47;;;;;;;7.75;3.13;;;21.20;99.90;;;;;;4937251;29;20476;-72
2022/05/15 13:17:24;;;;;;;12.43;3.60;;;20.80;99.90;;;;;;4954173;28;20051;-81